Time;durP1;ratioP1;P1;durP2;ratioP2;P2;SDS_P1;SDS_P2;PMS_P1;PMS_P2;Temp;Humidity;BMP_temperature;BMP_pressure;BME280_temperature;BME280_humidity;BME280_pressure;Samples;Min_cycle;Max_cycle;Signal;HPM_P1;HPM_P2
2023/05/05 00:00:57;;;;;;;17.70;13.77;;;15.00;92.40;;;;;;5124493;27;20266;-62
2023/05/05 00:03:25;;;;;;;18.10;14.13;;;15.00;92.40;;;;;;5117514;27;20278;-62
2023/05/05 00:05:53;;;;;;;17.33;13.97;;;15.00;92.40;;;;;;5120583;27;20239;-62
2023/05/05 00:08:20;;;;;;;17.03;15.33;;;15.00;92.50;;;;;;5122578;27;20196;-62
2023/05/05 00:10:51;;;;;;;17.10;15.33;;;15.00;92.50;;;;;;5121658;27;20641;-62
2023/05/05 00:13:19;;;;;;;21.20;16.40;;;15.00;92.60;;;;;;5116866;27;20382;-62
2023/05/05 00:15:48;;;;;;;17.13;15.43;;;15.00;92.60;;;;;;5116747;27;20197;-62
2023/05/05 00:18:17;;;;;;;18.60;15.83;;;15.00;92.70;;;;;;5120334;27;20205;-62
2023/05/05 00:20:47;;;;;;;19.17;16.43;;;15.00;92.70;;;;;;5118430;27;20268;-62
2023/05/05 00:23:15;;;;;;;19.53;15.40;;;14.90;92.70;;;;;;5117093;27;20197;-62
2023/05/05 00:25:42;;;;;;;17.60;15.63;;;15.00;92.70;;;;;;5121274;27;20285;-62
2023/05/05 00:28:09;;;;;;;17.97;15.20;;;14.90;92.70;;;;;;5120683;27;20302;-62
2023/05/05 00:30:38;;;;;;;17.47;12.70;;;14.90;92.80;;;;;;5121784;27;20291;-62
2023/05/05 00:33:05;;;;;;;16.53;14.73;;;14.90;92.80;;;;;;5119470;27;20204;-62
2023/05/05 00:35:33;;;;;;;18.70;15.03;;;14.90;92.80;;;;;;5093853;28;20644;-62
2023/05/05 00:38:00;;;;;;;18.73;15.50;;;14.90;92.70;;;;;;5121223;27;20231;-62
2023/05/05 00:40:27;;;;;;;19.47;16.23;;;14.90;92.70;;;;;;5127329;27;20234;-62
2023/05/05 00:42:54;;;;;;;19.30;17.23;;;14.90;92.70;;;;;;5117890;27;20634;-62
2023/05/05 00:45:21;;;;;;;20.00;16.77;;;14.90;92.70;;;;;;5123704;27;20323;-62
2023/05/05 00:47:52;;;;;;;20.93;17.30;;;14.90;92.70;;;;;;5117584;27;20227;-62
2023/05/05 00:50:25;;;;;;;20.20;16.33;;;14.80;92.60;;;;;;5129002;27;20257;-62
2023/05/05 00:53:04;;;;;;;23.27;16.43;;;14.80;92.70;;;;;;5116205;27;20290;-62
2023/05/05 00:55:33;;;;;;;20.03;16.53;;;14.80;92.80;;;;;;5123354;27;20637;-62
2023/05/05 00:58:04;;;;;;;19.57;16.63;;;14.80;92.90;;;;;;5118769;27;20205;-63
2023/05/05 01:00:33;;;;;;;21.27;15.83;;;14.80;92.90;;;;;;5125951;27;20636;-62
2023/05/05 01:03:00;;;;;;;21.60;14.80;;;14.80;93.00;;;;;;5118761;27;20244;-62
2023/05/05 01:05:36;;;;;;;20.67;15.10;;;14.70;92.90;;;;;;5117571;27;20199;-62
2023/05/05 01:08:41;;;;;;;19.50;15.27;;;14.70;92.90;;;;;;5122171;27;20250;-62
2023/05/05 01:11:27;;;;;;;18.47;13.93;;;14.70;92.90;;;;;;5119179;27;20265;-63
2023/05/05 01:14:00;;;;;;;18.40;14.80;;;14.60;92.90;;;;;;5133804;27;20234;-62
2023/05/05 01:16:30;;;;;;;21.73;17.37;;;14.60;93.00;;;;;;5112784;27;20201;-62
2023/05/05 01:19:16;;;;;;;19.07;16.80;;;14.50;93.10;;;;;;5118809;27;20196;-62
2023/05/05 01:21:50;;;;;;;24.30;16.97;;;14.50;93.10;;;;;;5123072;27;20216;-62
2023/05/05 01:24:23;;;;;;;21.23;16.43;;;14.40;93.10;;;;;;5116426;27;20612;-62
2023/05/05 01:27:16;;;;;;;22.43;17.70;;;14.40;93.20;;;;;;5121974;27;20205;-62
2023/05/05 01:29:46;;;;;;;20.30;15.90;;;14.40;93.30;;;;;;5114554;27;20626;-62
2023/05/05 01:32:18;;;;;;;21.80;15.47;;;14.40;93.30;;;;;;5121077;27;20210;-63
2023/05/05 01:35:01;;;;;;;18.63;15.40;;;14.30;93.30;;;;;;5112702;27;20216;-62
2023/05/05 01:37:41;;;;;;;19.33;14.53;;;14.30;93.40;;;;;;5115935;27;20253;-62
2023/05/05 01:40:11;;;;;;;20.83;15.60;;;14.20;93.40;;;;;;5118839;27;20207;-62
2023/05/05 01:42:42;;;;;;;19.77;15.97;;;14.20;93.50;;;;;;5122454;27;20662;-62
2023/05/05 01:45:12;;;;;;;18.80;16.23;;;14.20;93.50;;;;;;5122049;27;20694;-62
2023/05/05 01:47:42;;;;;;;15.87;13.47;;;14.20;93.50;;;;;;5113967;27;20199;-62
2023/05/05 01:50:10;;;;;;;14.30;12.73;;;14.10;93.50;;;;;;5117441;27;20205;-62
2023/05/05 01:52:38;;;;;;;19.80;14.43;;;14.10;93.50;;;;;;5116874;27;20196;-62
2023/05/05 01:55:08;;;;;;;15.47;13.50;;;14.10;93.50;;;;;;5112684;27;20260;-62
2023/05/05 01:57:37;;;;;;;17.07;15.27;;;14.00;93.60;;;;;;5115999;27;20226;-62
2023/05/05 02:00:06;;;;;;;20.53;15.67;;;14.00;93.70;;;;;;5106471;27;20233;-62
2023/05/05 02:02:44;;;;;;;20.33;17.23;;;14.00;93.80;;;;;;5115305;27;20208;-62
2023/05/05 02:05:12;;;;;;;22.90;19.33;;;14.00;93.80;;;;;;5108039;27;20612;-62
2023/05/05 02:07:40;;;;;;;22.27;17.43;;;14.00;93.90;;;;;;5117993;27;20687;-63
2023/05/05 02:10:11;;;;;;;22.10;17.60;;;14.00;94.00;;;;;;5115139;27;20282;-62
2023/05/05 02:12:39;;;;;;;22.17;18.37;;;14.00;94.10;;;;;;5118326;27;20278;-62
2023/05/05 02:15:10;;;;;;;20.57;17.30;;;14.00;94.10;;;;;;5125623;27;20196;-63
2023/05/05 02:17:41;;;;;;;23.30;18.87;;;13.90;94.10;;;;;;5117190;27;20292;-62
2023/05/05 02:20:12;;;;;;;25.60;19.07;;;13.90;94.10;;;;;;5118188;27;20544;-62
2023/05/05 02:22:40;;;;;;;29.27;18.77;;;13.90;94.20;;;;;;5116478;27;20231;-62
2023/05/05 02:25:08;;;;;;;26.53;19.83;;;13.90;94.30;;;;;;5116414;27;20216;-62
2023/05/05 02:27:39;;;;;;;25.63;19.90;;;13.90;94.40;;;;;;5114274;27;20199;-62
2023/05/05 02:30:08;;;;;;;27.77;20.53;;;13.90;94.50;;;;;;5117710;27;20523;-63
2023/05/05 02:32:44;;;;;;;25.13;19.30;;;13.90;94.50;;;;;;5118818;27;20216;-62
2023/05/05 02:35:21;;;;;;;25.97;19.40;;;13.90;94.60;;;;;;5133860;27;20209;-62
2023/05/05 02:38:01;;;;;;;22.30;19.33;;;13.90;94.60;;;;;;5110456;27;20207;-62
2023/05/05 02:40:34;;;;;;;26.70;20.87;;;13.90;94.70;;;;;;5103939;28;20244;-62
2023/05/05 02:43:06;;;;;;;24.30;18.80;;;13.90;94.70;;;;;;5114738;27;20224;-62
2023/05/05 02:45:34;;;;;;;22.40;17.30;;;13.90;94.60;;;;;;5115307;27;20697;-62
2023/05/05 02:48:02;;;;;;;20.93;16.57;;;13.90;94.30;;;;;;5104796;27;20264;-62
2023/05/05 02:50:33;;;;;;;17.70;15.80;;;13.80;94.00;;;;;;5108358;27;20207;-62
2023/05/05 02:53:33;;;;;;;24.43;16.20;;;13.70;93.80;;;;;;5103791;27;20207;-62
2023/05/05 02:56:28;;;;;;;21.20;16.63;;;13.70;93.70;;;;;;5101002;28;20549;-62
2023/05/05 02:59:30;;;;;;;20.57;15.57;;;13.60;93.70;;;;;;5110503;27;20271;-62
2023/05/05 03:02:33;;;;;;;23.40;17.87;;;13.40;93.80;;;;;;5110077;28;20224;-63
2023/05/05 03:05:03;;;;;;;22.30;18.00;;;13.40;93.90;;;;;;5119555;27;20517;-62
2023/05/05 03:07:44;;;;;;;22.77;18.10;;;13.30;94.00;;;;;;5116441;27;20203;-62
2023/05/05 03:10:17;;;;;;;23.37;16.93;;;13.20;94.10;;;;;;5110899;27;20237;-62
2023/05/05 03:12:57;;;;;;;23.63;17.90;;;13.20;94.10;;;;;;5116363;27;20514;-62
2023/05/05 03:15:40;;;;;;;23.40;17.97;;;13.20;94.30;;;;;;5117829;27;20208;-62
2023/05/05 03:18:09;;;;;;;20.70;17.70;;;13.10;94.30;;;;;;5125510;27;20528;-62
2023/05/05 03:20:39;;;;;;;23.13;16.93;;;13.10;94.40;;;;;;5120356;28;20256;-62
2023/05/05 03:23:12;;;;;;;21.27;18.17;;;13.10;94.50;;;;;;5120376;28;20671;-62
2023/05/05 03:25:44;;;;;;;26.47;18.90;;;13.10;94.60;;;;;;5120055;28;20314;-62
2023/05/05 03:28:20;;;;;;;24.47;18.03;;;13.10;94.60;;;;;;5115675;28;20364;-62
2023/05/05 03:30:47;;;;;;;22.60;18.23;;;13.00;94.50;;;;;;5114644;28;20196;-62
2023/05/05 03:33:17;;;;;;;22.77;18.13;;;13.00;95.00;;;;;;5115809;28;20215;-62
2023/05/05 03:35:44;;;;;;;24.73;18.33;;;13.00;94.80;;;;;;5118702;27;20219;-62
2023/05/05 03:38:12;;;;;;;23.43;19.13;;;13.00;94.80;;;;;;5121766;27;20207;-62
2023/05/05 03:40:40;;;;;;;26.67;19.97;;;13.00;94.90;;;;;;5116112;27;20222;-61
2023/05/05 03:43:14;;;;;;;23.60;18.60;;;13.00;95.00;;;;;;5117793;27;20664;-62
2023/05/05 03:45:42;;;;;;;24.87;18.57;;;13.00;95.00;;;;;;5118587;27;20313;-62
2023/05/05 03:48:10;;;;;;;21.27;16.80;;;13.00;95.10;;;;;;5106013;28;20195;-62
2023/05/05 03:50:39;;;;;;;22.13;17.07;;;13.00;95.20;;;;;;5122405;27;20212;-62
2023/05/05 03:53:07;;;;;;;20.20;16.30;;;13.00;95.10;;;;;;5106219;28;20207;-62
2023/05/05 03:55:35;;;;;;;21.30;17.23;;;13.00;95.00;;;;;;5122771;27;20579;-62
2023/05/05 03:58:02;;;;;;;22.40;16.93;;;13.00;95.00;;;;;;5118917;27;20522;-62
2023/05/05 04:00:29;;;;;;;22.00;16.50;;;12.90;95.00;;;;;;5121419;27;20264;-62
2023/05/05 04:02:56;;;;;;;18.93;13.73;;;12.90;95.10;;;;;;5122095;27;20217;-62
2023/05/05 04:05:24;;;;;;;14.90;11.60;;;12.90;95.10;;;;;;5123661;27;20216;-62
2023/05/05 04:07:53;;;;;;;17.67;13.87;;;12.90;95.00;;;;;;5118413;27;20196;-62
2023/05/05 04:10:20;;;;;;;18.90;13.97;;;12.80;94.80;;;;;;5117993;27;20199;-62
2023/05/05 04:12:47;;;;;;;18.10;14.00;;;12.80;94.70;;;;;;5107880;27;20205;-62
2023/05/05 04:15:14;;;;;;;19.30;15.87;;;12.80;94.70;;;;;;5119522;27;20221;-62
2023/05/05 04:17:42;;;;;;;17.87;14.27;;;12.80;94.70;;;;;;5116621;27;20199;-62
2023/05/05 04:20:09;;;;;;;18.63;13.97;;;12.80;94.80;;;;;;5122899;27;20629;-62
2023/05/05 04:22:37;;;;;;;21.00;14.80;;;12.80;94.80;;;;;;5111889;27;20216;-62
2023/05/05 04:25:05;;;;;;;21.77;15.67;;;12.80;94.80;;;;;;5123216;27;20201;-62
2023/05/05 04:27:32;;;;;;;19.77;16.97;;;12.80;94.90;;;;;;5120450;27;20340;-62
2023/05/05 04:30:00;;;;;;;23.47;18.43;;;12.80;94.90;;;;;;5122244;27;20534;-62
2023/05/05 04:32:27;;;;;;;25.47;17.70;;;12.90;95.00;;;;;;5137820;27;20203;-62
2023/05/05 04:34:55;;;;;;;21.83;17.40;;;12.90;95.10;;;;;;5120488;27;20261;-64
2023/05/05 04:37:24;;;;;;;21.50;18.23;;;13.00;95.10;;;;;;5110905;28;20236;-62
2023/05/05 04:39:51;;;;;;;21.43;16.90;;;13.00;95.20;;;;;;5120492;27;20287;-62
2023/05/05 04:42:19;;;;;;;19.63;15.20;;;13.10;95.30;;;;;;5117061;27;20246;-62
2023/05/05 04:44:46;;;;;;;18.77;15.60;;;13.20;95.30;;;;;;5122399;27;20272;-62
2023/05/05 04:47:13;;;;;;;19.43;15.00;;;13.20;95.20;;;;;;5113837;27;20200;-62
2023/05/05 04:49:42;;;;;;;22.17;18.57;;;13.30;95.20;;;;;;5120694;27;20209;-62
2023/05/05 04:52:12;;;;;;;19.87;16.53;;;13.30;95.20;;;;;;5119974;27;20195;-62
2023/05/05 04:54:39;;;;;;;20.37;15.87;;;13.30;95.20;;;;;;5100650;27;20188;-62
2023/05/05 04:57:06;;;;;;;23.83;16.73;;;13.40;95.30;;;;;;5120843;27;20200;-62
2023/05/05 04:59:35;;;;;;;24.47;18.53;;;13.40;95.30;;;;;;5116557;27;20222;-62
2023/05/05 05:02:02;;;;;;;21.67;18.03;;;13.50;95.30;;;;;;5122859;27;20217;-62
2023/05/05 05:04:29;;;;;;;21.10;16.97;;;13.50;95.30;;;;;;5120593;27;20295;-62
2023/05/05 05:06:56;;;;;;;22.50;18.00;;;13.60;95.40;;;;;;5115678;27;20522;-62
2023/05/05 05:09:25;;;;;;;22.13;16.43;;;13.60;95.50;;;;;;5122046;27;20192;-62
2023/05/05 05:11:52;;;;;;;18.30;14.10;;;13.60;95.50;;;;;;5120900;27;20206;-62
2023/05/05 05:14:20;;;;;;;17.37;11.83;;;13.70;95.50;;;;;;5119559;27;20208;-63
2023/05/05 05:16:50;;;;;;;17.37;13.27;;;13.70;95.40;;;;;;5114088;27;20211;-62
2023/05/05 05:19:21;;;;;;;16.83;13.93;;;13.80;95.30;;;;;;5122496;27;20236;-62
2023/05/05 05:21:48;;;;;;;21.47;16.27;;;13.90;95.30;;;;;;5117287;27;20197;-62
2023/05/05 05:24:15;;;;;;;22.70;17.17;;;14.00;95.60;;;;;;5116648;27;20231;-62
2023/05/05 05:26:43;;;;;;;24.27;18.43;;;14.10;95.30;;;;;;5120411;27;20211;-62
2023/05/05 05:29:10;;;;;;;24.87;19.13;;;14.20;95.40;;;;;;5136340;27;20247;-62
2023/05/05 05:31:38;;;;;;;19.63;16.80;;;14.40;95.50;;;;;;5117769;27;20227;-62
2023/05/05 05:34:06;;;;;;;20.30;17.20;;;14.50;95.50;;;;;;5117447;27;20198;-62
2023/05/05 05:36:33;;;;;;;22.53;17.97;;;14.70;95.50;;;;;;5105912;27;20203;-62
2023/05/05 05:39:01;;;;;;;26.07;16.80;;;14.90;95.50;;;;;;5120262;27;20705;-62
2023/05/05 05:41:28;;;;;;;21.93;17.90;;;15.10;95.40;;;;;;5118138;27;20193;-62
2023/05/05 05:43:56;;;;;;;22.83;17.73;;;15.30;95.30;;;;;;5124160;27;20212;-62
2023/05/05 05:46:23;;;;;;;22.37;19.97;;;15.40;95.20;;;;;;5118738;27;20678;-62
2023/05/05 05:48:51;;;;;;;23.27;19.60;;;15.60;95.10;;;;;;5111300;27;20266;-62
2023/05/05 05:51:18;;;;;;;23.57;18.07;;;15.80;95.00;;;;;;5118029;27;20289;-62
2023/05/05 05:53:46;;;;;;;22.03;18.07;;;15.90;95.00;;;;;;5115315;27;20266;-62
2023/05/05 05:56:13;;;;;;;20.50;16.03;;;16.10;95.20;;;;;;5110395;27;20263;-62
2023/05/05 05:58:41;;;;;;;24.17;17.67;;;16.30;94.80;;;;;;5119877;27;20661;-62
2023/05/05 06:01:08;;;;;;;20.37;16.53;;;16.40;94.60;;;;;;5118979;27;20272;-62
2023/05/05 06:03:35;;;;;;;19.30;16.73;;;16.60;94.40;;;;;;5114893;27;20226;-62
2023/05/05 06:06:03;;;;;;;18.97;16.90;;;16.80;94.20;;;;;;5121235;27;20607;-62
2023/05/05 06:08:30;;;;;;;20.93;17.37;;;16.90;94.00;;;;;;5113395;27;20232;-62
2023/05/05 06:10:57;;;;;;;18.77;16.40;;;17.10;94.00;;;;;;5121353;27;20232;-62
2023/05/05 06:13:25;;;;;;;18.57;16.10;;;17.20;93.80;;;;;;5116332;27;20202;-62
2023/05/05 06:15:52;;;;;;;18.97;15.77;;;17.40;93.60;;;;;;5137065;27;20201;-62
2023/05/05 06:18:19;;;;;;;21.43;19.23;;;17.50;93.40;;;;;;5114880;27;20685;-62
2023/05/05 06:20:49;;;;;;;21.53;18.70;;;17.60;93.20;;;;;;5125544;27;20206;-62
2023/05/05 06:23:18;;;;;;;24.20;19.20;;;17.70;93.00;;;;;;5105434;27;20227;-62
2023/05/05 06:25:52;;;;;;;21.70;18.13;;;17.80;93.00;;;;;;5104819;28;20294;-62
2023/05/05 06:28:20;;;;;;;23.60;18.27;;;17.90;92.90;;;;;;5116091;27;20216;-62
2023/05/05 06:30:47;;;;;;;31.93;18.03;;;18.00;92.60;;;;;;5114163;27;20259;-62
2023/05/05 06:33:13;;;;;;;24.57;17.90;;;18.20;92.50;;;;;;5113724;27;20212;-62
2023/05/05 06:35:41;;;;;;;19.97;17.40;;;18.30;92.30;;;;;;5111849;27;20875;-62
2023/05/05 06:38:08;;;;;;;21.60;18.97;;;18.40;92.00;;;;;;5115700;27;20242;-62
2023/05/05 06:40:35;;;;;;;21.30;19.10;;;18.50;91.80;;;;;;5118392;27;20200;-63
2023/05/05 06:43:02;;;;;;;25.10;20.17;;;18.60;91.70;;;;;;5120171;27;20667;-62
2023/05/05 06:45:34;;;;;;;22.30;19.93;;;18.80;91.30;;;;;;5101950;28;20228;-63
2023/05/05 06:48:01;;;;;;;28.80;20.97;;;18.90;91.00;;;;;;5112449;27;20207;-62
2023/05/05 06:50:28;;;;;;;24.33;20.43;;;18.90;90.60;;;;;;5108341;27;20203;-63
2023/05/05 06:52:55;;;;;;;21.70;19.40;;;19.10;90.60;;;;;;5117725;27;20619;-62
2023/05/05 06:55:22;;;;;;;23.97;20.00;;;19.20;90.60;;;;;;5115064;27;20210;-63
2023/05/05 06:57:49;;;;;;;22.17;18.50;;;19.40;90.60;;;;;;5123360;27;20230;-62
2023/05/05 07:00:17;;;;;;;25.60;20.70;;;19.50;90.30;;;;;;5113780;27;20283;-63
2023/05/05 07:02:44;;;;;;;24.83;21.30;;;19.60;90.10;;;;;;5120764;27;20225;-63
2023/05/05 07:05:11;;;;;;;23.40;20.90;;;19.80;90.10;;;;;;5115331;27;20200;-63
2023/05/05 07:07:50;;;;;;;22.47;20.07;;;19.90;90.00;;;;;;5114290;27;20203;-63
2023/05/05 07:10:17;;;;;;;23.77;21.27;;;20.10;89.40;;;;;;5115387;27;20550;-62
2023/05/05 07:12:44;;;;;;;24.93;21.30;;;20.30;89.20;;;;;;5112820;27;20209;-63
2023/05/05 07:15:11;;;;;;;24.37;21.77;;;20.50;89.10;;;;;;5121340;27;20211;-63
2023/05/05 07:17:52;;;;;;;26.43;22.00;;;20.50;88.20;;;;;;5112870;27;20253;-63
2023/05/05 07:20:20;;;;;;;25.77;22.97;;;20.70;87.40;;;;;;5116701;28;20228;-63
2023/05/05 07:22:47;;;;;;;27.50;22.20;;;20.80;86.40;;;;;;5114139;28;20207;-62
2023/05/05 07:25:14;;;;;;;26.70;21.73;;;20.90;86.00;;;;;;5112646;27;20477;-63
2023/05/05 07:27:41;;;;;;;24.50;21.83;;;21.00;85.50;;;;;;5119079;28;20211;-61
2023/05/05 07:30:08;;;;;;;27.73;23.53;;;21.20;84.90;;;;;;5106324;28;20300;-62
2023/05/05 07:32:41;;;;;;;26.53;20.63;;;21.30;84.00;;;;;;5107517;28;20181;-62
2023/05/05 07:35:08;;;;;;;23.87;21.27;;;21.40;83.80;;;;;;5110613;28;20197;-62
2023/05/05 07:37:35;;;;;;;28.00;23.03;;;21.60;83.20;;;;;;5115971;28;20200;-65
2023/05/05 07:40:02;;;;;;;23.30;20.87;;;21.70;82.30;;;;;;5124397;28;20267;-61
2023/05/05 07:42:30;;;;;;;23.17;20.73;;;21.90;81.60;;;;;;5119900;27;20627;-63
2023/05/05 07:44:57;;;;;;;24.57;21.43;;;22.00;81.40;;;;;;5119344;28;20297;-66
2023/05/05 07:47:24;;;;;;;23.50;20.37;;;22.20;80.50;;;;;;5118192;28;20211;-63
2023/05/05 07:49:51;;;;;;;21.47;19.27;;;22.20;79.10;;;;;;5121396;28;20195;-63
2023/05/05 07:52:18;;;;;;;23.03;19.23;;;22.30;79.70;;;;;;5123007;28;20235;-61
2023/05/05 07:54:53;;;;;;;23.03;18.93;;;22.40;79.30;;;;;;5117350;28;20201;-62
2023/05/05 07:57:20;;;;;;;20.10;18.00;;;22.50;77.10;;;;;;5118245;28;20585;-61
2023/05/05 07:59:47;;;;;;;19.00;16.67;;;22.60;77.20;;;;;;5119571;28;20204;-63
2023/05/05 08:02:14;;;;;;;21.07;17.43;;;22.70;77.70;;;;;;5114143;28;20244;-63
2023/05/05 08:04:42;;;;;;;19.17;17.23;;;22.80;75.70;;;;;;5117223;28;20294;-65
2023/05/05 08:07:09;;;;;;;17.43;15.63;;;22.80;74.70;;;;;;5111051;28;20197;-62
2023/05/05 08:09:37;;;;;;;19.63;16.90;;;22.90;74.70;;;;;;5118023;28;20227;-62
2023/05/05 08:12:04;;;;;;;20.17;15.60;;;22.90;75.70;;;;;;5114902;28;20649;-62
2023/05/05 08:14:31;;;;;;;18.33;14.47;;;23.00;75.90;;;;;;5117304;28;20281;-62
2023/05/05 08:16:58;;;;;;;17.03;15.23;;;23.20;75.40;;;;;;5120364;28;20201;-62
2023/05/05 08:19:25;;;;;;;17.50;13.57;;;23.30;74.70;;;;;;5118295;28;20223;-64
2023/05/05 08:21:56;;;;;;;14.10;12.53;;;23.40;74.20;;;;;;5121424;27;20207;-63
2023/05/05 08:24:26;;;;;;;10.90;9.93;;;23.60;73.40;;;;;;5116988;27;20217;-62
2023/05/05 08:26:55;;;;;;;8.60;7.70;;;23.70;72.10;;;;;;5120900;27;20192;-63
2023/05/05 08:29:22;;;;;;;8.97;4.70;;;23.80;68.90;;;;;;5121391;27;20224;-62
2023/05/05 08:31:49;;;;;;;6.63;5.70;;;23.90;67.30;;;;;;5117912;27;20188;-61
2023/05/05 08:34:16;;;;;;;5.90;5.00;;;24.00;64.50;;;;;;5117511;27;20696;-63
2023/05/05 08:36:43;;;;;;;5.10;4.60;;;24.10;65.40;;;;;;5122911;27;20249;-62
2023/05/05 08:39:10;;;;;;;7.07;3.93;;;24.20;65.90;;;;;;5121299;27;20196;-63
2023/05/05 08:41:37;;;;;;;4.30;3.97;;;24.30;65.20;;;;;;5122632;27;20279;-62
2023/05/05 08:44:04;;;;;;;7.97;3.80;;;24.50;64.30;;;;;;5119281;27;20220;-61
2023/05/05 08:46:31;;;;;;;4.83;4.00;;;24.60;64.30;;;;;;5124155;27;20251;-63
2023/05/05 08:49:00;;;;;;;6.00;4.30;;;24.80;64.20;;;;;;5122456;27;20618;-63
2023/05/05 08:51:36;;;;;;;4.00;3.70;;;25.00;64.30;;;;;;5127123;27;20564;-62
2023/05/05 08:54:07;;;;;;;4.57;3.33;;;25.10;64.70;;;;;;5121396;27;20200;-62
2023/05/05 08:56:40;;;;;;;4.30;3.70;;;25.30;61.70;;;;;;5117375;27;20215;-62
2023/05/05 08:59:09;;;;;;;5.20;4.43;;;25.40;61.70;;;;;;5114064;27;20204;-63
2023/05/05 09:01:37;;;;;;;4.50;3.77;;;25.50;60.80;;;;;;5116429;27;20203;-63
2023/05/05 09:04:06;;;;;;;5.97;4.33;;;25.50;61.30;;;;;;5118268;27;20258;-63
2023/05/05 09:06:34;;;;;;;6.53;4.73;;;25.60;62.10;;;;;;5120146;27;20196;-64
2023/05/05 09:09:02;;;;;;;5.40;4.57;;;25.70;61.40;;;;;;5115340;27;20199;-62
2023/05/05 09:11:29;;;;;;;4.90;4.50;;;25.80;59.90;;;;;;5113750;27;20283;-62
2023/05/05 09:13:56;;;;;;;4.70;4.17;;;25.80;56.40;;;;;;5111007;27;20211;-63
2023/05/05 09:16:23;;;;;;;4.07;3.67;;;25.70;57.80;;;;;;5114223;27;20279;-64
2023/05/05 09:19:01;;;;;;;3.77;3.47;;;25.70;59.20;;;;;;5117460;27;20577;-62
2023/05/05 09:21:28;;;;;;;4.20;3.80;;;25.80;59.70;;;;;;5121114;27;20615;-62
2023/05/05 09:24:05;;;;;;;4.07;3.10;;;26.00;59.70;;;;;;5122579;27;20330;-63
2023/05/05 09:26:40;;;;;;;3.93;3.10;;;26.10;56.50;;;;;;5120772;27;20198;-63
2023/05/05 09:29:07;;;;;;;3.23;2.93;;;26.10;56.70;;;;;;5120901;27;20269;-62
2023/05/05 09:31:36;;;;;;;3.77;3.47;;;26.10;58.00;;;;;;5116265;27;20317;-64
2023/05/05 09:34:16;;;;;;;3.10;2.90;;;26.20;55.20;;;;;;5119036;27;20212;-63
2023/05/05 09:36:47;;;;;;;3.20;3.00;;;26.20;56.30;;;;;;5112057;27;20952;-62
2023/05/05 09:39:18;;;;;;;3.20;2.60;;;26.30;55.20;;;;;;5113899;27;20226;-62
2023/05/05 09:41:46;;;;;;;3.37;3.07;;;26.40;52.30;;;;;;5112892;27;20205;-63
2023/05/05 09:44:16;;;;;;;3.80;3.40;;;26.40;53.80;;;;;;5108629;27;20235;-64
2023/05/05 09:46:50;;;;;;;5.83;3.10;;;26.40;53.90;;;;;;5110470;27;20311;-63
2023/05/05 09:49:24;;;;;;;4.37;3.83;;;26.50;52.50;;;;;;5114260;27;20197;-63
2023/05/05 09:51:52;;;;;;;4.73;4.23;;;26.50;52.20;;;;;;5116189;27;20200;-62
2023/05/05 09:54:27;;;;;;;4.00;2.63;;;26.50;52.40;;;;;;5118874;27;20290;-64
2023/05/05 09:56:57;;;;;;;2.97;2.67;;;26.40;48.50;;;;;;5122028;27;20279;-63
2023/05/05 09:59:24;;;;;;;3.07;2.77;;;26.30;48.20;;;;;;5117289;27;20196;-64
2023/05/05 10:01:51;;;;;;;3.63;3.20;;;26.30;50.80;;;;;;5112143;27;20410;-65
2023/05/05 10:04:28;;;;;;;5.30;3.87;;;26.30;51.50;;;;;;5119065;27;20556;-63
2023/05/05 10:06:56;;;;;;;3.97;3.37;;;26.40;51.10;;;;;;5117019;27;20208;-63
2023/05/05 10:09:25;;;;;;;4.90;3.17;;;26.40;51.60;;;;;;5115961;27;20204;-63
2023/05/05 10:11:54;;;;;;;5.10;3.00;;;26.50;51.00;;;;;;5114975;27;20303;-62
2023/05/05 10:14:24;;;;;;;6.10;3.73;;;26.70;51.50;;;;;;5114490;27;20207;-63
2023/05/05 10:16:52;;;;;;;4.60;4.20;;;26.60;51.30;;;;;;5112104;27;20241;-64
2023/05/05 10:19:22;;;;;;;4.40;4.00;;;26.60;52.60;;;;;;5111331;27;20525;-63
2023/05/05 10:21:51;;;;;;;4.30;3.90;;;26.70;53.50;;;;;;5110003;27;20499;-64
2023/05/05 10:24:50;;;;;;;6.17;3.40;;;26.80;54.00;;;;;;5108910;27;20243;-64
2023/05/05 10:27:22;;;;;;;2.80;2.53;;;26.90;52.10;;;;;;5108481;27;20211;-64
2023/05/05 10:30:02;;;;;;;3.60;3.20;;;27.00;50.10;;;;;;5117194;27;20192;-64
2023/05/05 10:32:48;;;;;;;3.17;2.70;;;27.10;50.70;;;;;;5116898;27;20198;-64
2023/05/05 10:35:28;;;;;;;3.60;3.30;;;27.10;50.00;;;;;;5116075;27;20512;-64
2023/05/05 10:37:58;;;;;;;6.77;3.40;;;27.10;50.50;;;;;;5120319;27;20600;-64
2023/05/05 10:40:26;;;;;;;4.07;2.70;;;27.20;50.50;;;;;;5118141;27;20649;-65
2023/05/05 10:42:53;;;;;;;3.43;2.27;;;27.20;50.80;;;;;;5118544;27;20203;-64
2023/05/05 10:45:20;;;;;;;3.73;3.30;;;27.10;52.20;;;;;;5120752;27;20228;-64
2023/05/05 10:47:48;;;;;;;3.40;3.10;;;27.20;50.50;;;;;;5121519;27;20193;-64
2023/05/05 10:50:33;;;;;;;3.53;3.23;;;27.20;50.30;;;;;;5115689;27;20196;-64
2023/05/05 10:53:24;;;;;;;2.87;2.67;;;27.20;50.20;;;;;;5121020;27;20697;-64
2023/05/05 10:56:04;;;;;;;3.63;3.23;;;27.30;49.90;;;;;;5118556;27;20188;-64
2023/05/05 10:58:40;;;;;;;4.63;3.27;;;27.30;47.40;;;;;;5114258;27;20254;-64
2023/05/05 11:01:30;;;;;;;3.53;3.20;;;27.20;47.20;;;;;;5115167;27;20257;-64
2023/05/05 11:04:35;;;;;;;5.17;3.50;;;27.10;49.30;;;;;;5120178;27;20231;-64
2023/05/05 11:07:08;;;;;;;3.83;3.40;;;27.00;49.70;;;;;;5032659;28;20214;-64
2023/05/05 11:10:06;;;;;;;3.50;3.20;;;27.00;49.90;;;;;;5029742;28;20477;-64
2023/05/05 11:13:01;;;;;;;4.37;3.87;;;27.00;48.70;;;;;;5093893;27;20298;-64
2023/05/05 11:15:28;;;;;;;6.07;3.30;;;27.10;48.40;;;;;;5115905;27;20196;-64
2023/05/05 11:18:03;;;;;;;3.50;3.23;;;27.00;48.20;;;;;;5115934;27;20215;-64
2023/05/05 11:20:40;;;;;;;4.17;3.07;;;27.00;49.70;;;;;;5111387;27;20202;-64
2023/05/05 11:23:07;;;;;;;2.87;2.60;;;27.10;48.30;;;;;;5117222;28;20281;-64
2023/05/05 11:25:34;;;;;;;3.47;3.17;;;27.10;49.00;;;;;;5118549;28;20303;-64
2023/05/05 11:28:10;;;;;;;5.93;3.77;;;27.20;50.10;;;;;;5114038;28;20611;-64
2023/05/05 11:30:57;;;;;;;4.20;3.80;;;27.30;51.00;;;;;;5115816;28;20196;-64
2023/05/05 11:33:35;;;;;;;3.77;3.37;;;27.40;51.40;;;;;;5118409;28;20184;-64
2023/05/05 11:36:11;;;;;;;5.13;3.33;;;27.50;51.20;;;;;;5114884;28;20320;-64
2023/05/05 11:38:38;;;;;;;4.03;3.63;;;27.70;50.70;;;;;;5122373;28;20195;-64
2023/05/05 11:41:14;;;;;;;4.50;3.13;;;27.80;50.10;;;;;;5116085;28;20189;-64
2023/05/05 11:43:42;;;;;;;3.13;2.80;;;27.80;48.80;;;;;;5116135;28;20226;-64
2023/05/05 11:46:15;;;;;;;3.17;2.87;;;27.90;49.60;;;;;;5121008;28;20237;-64
2023/05/05 11:48:45;;;;;;;2.97;2.70;;;27.90;47.30;;;;;;5116644;28;20291;-65
2023/05/05 11:51:13;;;;;;;3.53;3.23;;;27.90;49.00;;;;;;5112321;28;20195;-64
2023/05/05 11:53:47;;;;;;;3.30;3.00;;;27.80;48.10;;;;;;5118751;27;20188;-64
2023/05/05 11:56:20;;;;;;;3.20;2.90;;;27.80;48.60;;;;;;5113981;27;20206;-64
2023/05/05 11:58:48;;;;;;;4.20;3.27;;;27.80;48.70;;;;;;5118590;27;20509;-64
2023/05/05 12:01:15;;;;;;;4.37;3.07;;;27.90;49.20;;;;;;5112946;27;20638;-64
2023/05/05 12:03:44;;;;;;;3.90;2.70;;;27.90;49.10;;;;;;5117941;27;20202;-64
2023/05/05 12:06:12;;;;;;;2.93;2.73;;;28.00;49.20;;;;;;5114462;27;20197;-64
2023/05/05 12:08:40;;;;;;;3.97;3.30;;;28.00;49.00;;;;;;5117815;27;20192;-64
2023/05/05 12:11:09;;;;;;;3.20;2.70;;;28.10;47.50;;;;;;5123179;27;20614;-64
2023/05/05 12:13:36;;;;;;;3.93;3.40;;;28.10;48.30;;;;;;5124149;27;20251;-64
2023/05/05 12:16:11;;;;;;;3.37;2.63;;;28.10;47.80;;;;;;5120173;27;20579;-64
2023/05/05 12:18:39;;;;;;;4.43;2.70;;;28.10;48.50;;;;;;5122801;27;20682;-64
2023/05/05 12:21:19;;;;;;;3.27;2.97;;;28.20;48.50;;;;;;5118823;27;20211;-64
2023/05/05 12:23:46;;;;;;;3.20;2.90;;;28.20;48.30;;;;;;5118931;27;20204;-64
2023/05/05 12:26:30;;;;;;;2.87;2.40;;;28.20;47.60;;;;;;5118735;27;20216;-64
2023/05/05 12:28:59;;;;;;;3.60;2.80;;;28.10;48.60;;;;;;5118033;27;20206;-64
2023/05/05 12:31:36;;;;;;;2.40;2.20;;;28.10;48.90;;;;;;5115973;27;20695;-64
2023/05/05 12:34:05;;;;;;;4.47;2.73;;;28.00;49.10;;;;;;5110380;27;20648;-64
2023/05/05 12:36:32;;;;;;;2.40;2.20;;;28.00;47.60;;;;;;5116411;27;20192;-64
2023/05/05 12:39:00;;;;;;;9.23;2.50;;;27.90;46.80;;;;;;5115681;27;20638;-64
2023/05/05 12:41:27;;;;;;;3.23;2.30;;;27.80;45.60;;;;;;5115287;27;20232;-64
2023/05/05 12:43:55;;;;;;;3.83;2.33;;;27.80;46.70;;;;;;5113386;27;20189;-64
2023/05/05 12:46:23;;;;;;;2.40;2.10;;;27.70;46.60;;;;;;5125077;27;20236;-64
2023/05/05 12:49:06;;;;;;;2.40;2.20;;;27.80;47.20;;;;;;5119093;27;20218;-64
2023/05/05 12:51:34;;;;;;;3.33;2.40;;;27.80;48.20;;;;;;5115048;27;20206;-64